Flight Number: EUR2050 Duration: 3:30
Departure: Cairo Int'll Airport (HECA) at 18:15 Distance: 1416 Nm
Arrival: Munich Int'l (EDDM) at 21:45 Equipment: A340

Weather Information
Cairo Airport, Egypt (HECA) 30-08N 031-24E 74M Nov 19, 2017 - 10:30 PM EST / 2017.11.20 0330 UTC
Wind: from the SSE (150 degrees) at 6 MPH (5 KT):0
Visibility: 1 mile(s):0 Weather: haze Temperature: 60 F (16 C) Dew Point: 51 F (11 C) Relative Humidity: 72% Pressure (altimeter): 29.97 in. Hg (1015 hPa)
ob: HECA 200330Z 15005KT 3000 HZ NSC 16/11 Q1015 NOSIG cycle: 3
Sunrise: 04:27 Sunset: 14:53 (UTC)

Munchen, Germany (EDDM) 48-21N 011-47E Nov 19, 2017 - 10:50 PM EST / 2017.11.20 0350 UTC
Wind: from the W (260 degrees) at 14 MPH (12 KT):0
Visibility: greater than 7 mile(s):0 Temperature: 35 F (2 C)
Windchill: 26 F (-3 C):1 Dew Point: 30 F (-1 C) Relative Humidity: 80% Pressure (altimeter): 30.15 in. Hg (1021 hPa)
ob: EDDM 200350Z 26012KT CAVOK 02/M01 Q1021 NOSIG cycle: 4
Sunrise: 06:32 Sunset: 15:24 (UTC)

TAF:2017/11/19 18:27 TAF EDDM 191700Z 1918/2024 26013KT 9999 FEW014 BKN040 TEMPO 1918/2003 31015G25KT PROB30 TEMPO 1918/2003 2000 SHSNRA BKN014CB BECMG 2015/2018 23007KT TEMPO 2018/2024 RA BECMG 2021/2024 25015G25KT

Previous Pireps for this route
Date Aircraft Flight time Fuel used Landing rate On time
2012-07-17A3403.19441150Yes
2012-10-19A34004.1968703-331No
2013-08-22A34003.56106301-278No
2013-09-18A3405.21112120No
2016-03-05A34004.0290740-123No
2016-08-02B7773.3973181.80Yes
(pireps marked green are flown by you)

Route map